<?xml version="1.0" encoding="UTF-8" standalone="no" ?>
<gpx xmlns="http://www.topografix.com/GPX/1/1" xmlns:xsi="http://www.w3.org/2001/XMLSchema-instance" xsi:schemaLocation="http://www.topografix.com/GPX/1/1 http://www.topografix.com/GPX/1/1/gpx.xsd" version="1.1" creator="VisuGPX - https://www.visugpx.com">
  <metadata>
    <name>Lozannes-Charbonnières2</name>
  </metadata>
  <trk>
    <name><![CDATA[13320525-Lozannes-Charbonnières2]]></name>
    <trkseg>
      <trkpt lat="45.85959" lon="4.68207">
        <ele>222</ele>
        <time>2021-06-30T17:16:46Z</time>
      </trkpt>
      <trkpt lat="45.85942" lon="4.68201">
        <ele>221</ele>
        <time>2021-06-30T17:17:00Z</time>
      </trkpt>
      <trkpt lat="45.85935" lon="4.68218">
        <ele>218</ele>
        <time>2021-06-30T17:17:11Z</time>
      </trkpt>
      <trkpt lat="45.85944" lon="4.68294">
        <ele>211</ele>
        <time>2021-06-30T17:17:54Z</time>
      </trkpt>
      <trkpt lat="45.85947" lon="4.68307">
        <ele>211</ele>
        <time>2021-06-30T17:18:02Z</time>
      </trkpt>
      <trkpt lat="45.85953" lon="4.68326">
        <ele>210</ele>
        <time>2021-06-30T17:18:13Z</time>
      </trkpt>
      <trkpt lat="45.85956" lon="4.68357">
        <ele>209</ele>
        <time>2021-06-30T17:18:31Z</time>
      </trkpt>
      <trkpt lat="45.85938" lon="4.68369">
        <ele>206</ele>
        <time>2021-06-30T17:18:47Z</time>
      </trkpt>
      <trkpt lat="45.85868" lon="4.68435">
        <ele>200</ele>
        <time>2021-06-30T17:19:54Z</time>
      </trkpt>
      <trkpt lat="45.8588" lon="4.68507">
        <ele>200</ele>
        <time>2021-06-30T17:20:35Z</time>
      </trkpt>
      <trkpt lat="45.85888" lon="4.68586">
        <ele>199</ele>
        <time>2021-06-30T17:21:19Z</time>
      </trkpt>
      <trkpt lat="45.85891" lon="4.68632">
        <ele>198</ele>
        <time>2021-06-30T17:21:45Z</time>
      </trkpt>
      <trkpt lat="45.85891" lon="4.68651">
        <ele>198</ele>
        <time>2021-06-30T17:21:56Z</time>
      </trkpt>
      <trkpt lat="45.85886" lon="4.68717">
        <ele>198</ele>
        <time>2021-06-30T17:22:33Z</time>
      </trkpt>
      <trkpt lat="45.85879" lon="4.68767">
        <ele>198</ele>
        <time>2021-06-30T17:23:01Z</time>
      </trkpt>
      <trkpt lat="45.85875" lon="4.68766">
        <ele>198</ele>
        <time>2021-06-30T17:23:05Z</time>
      </trkpt>
      <trkpt lat="45.85875" lon="4.68771">
        <ele>198</ele>
        <time>2021-06-30T17:23:07Z</time>
      </trkpt>
      <trkpt lat="45.85874" lon="4.68774">
        <ele>198</ele>
        <time>2021-06-30T17:23:09Z</time>
      </trkpt>
      <trkpt lat="45.85872" lon="4.68774">
        <ele>198</ele>
        <time>2021-06-30T17:23:11Z</time>
      </trkpt>
      <trkpt lat="45.85843" lon="4.68764">
        <ele>199</ele>
        <time>2021-06-30T17:23:35Z</time>
      </trkpt>
      <trkpt lat="45.85841" lon="4.68748">
        <ele>199</ele>
        <time>2021-06-30T17:23:44Z</time>
      </trkpt>
      <trkpt lat="45.85837" lon="4.68746">
        <ele>199</ele>
        <time>2021-06-30T17:23:47Z</time>
      </trkpt>
      <trkpt lat="45.8583" lon="4.68751">
        <ele>199</ele>
        <time>2021-06-30T17:23:53Z</time>
      </trkpt>
      <trkpt lat="45.85822" lon="4.68751">
        <ele>199</ele>
        <time>2021-06-30T17:24:00Z</time>
      </trkpt>
      <trkpt lat="45.85813" lon="4.68748">
        <ele>199</ele>
        <time>2021-06-30T17:24:07Z</time>
      </trkpt>
      <trkpt lat="45.85806" lon="4.68747">
        <ele>199</ele>
        <time>2021-06-30T17:24:13Z</time>
      </trkpt>
      <trkpt lat="45.85816" lon="4.68645">
        <ele>198</ele>
        <time>2021-06-30T17:25:10Z</time>
      </trkpt>
      <trkpt lat="45.85813" lon="4.68626">
        <ele>199</ele>
        <time>2021-06-30T17:25:21Z</time>
      </trkpt>
      <trkpt lat="45.85803" lon="4.68631">
        <ele>199</ele>
        <time>2021-06-30T17:25:30Z</time>
      </trkpt>
      <trkpt lat="45.85746" lon="4.68682">
        <ele>199</ele>
        <time>2021-06-30T17:26:23Z</time>
      </trkpt>
      <trkpt lat="45.85617" lon="4.68718">
        <ele>200</ele>
        <time>2021-06-30T17:28:09Z</time>
      </trkpt>
      <trkpt lat="45.85593" lon="4.68734">
        <ele>200</ele>
        <time>2021-06-30T17:28:30Z</time>
      </trkpt>
      <trkpt lat="45.85552" lon="4.68749">
        <ele>200</ele>
        <time>2021-06-30T17:29:04Z</time>
      </trkpt>
      <trkpt lat="45.85498" lon="4.68758">
        <ele>199</ele>
        <time>2021-06-30T17:29:47Z</time>
      </trkpt>
      <trkpt lat="45.85505" lon="4.6884">
        <ele>199</ele>
        <time>2021-06-30T17:30:33Z</time>
      </trkpt>
      <trkpt lat="45.85482" lon="4.68839">
        <ele>199</ele>
        <time>2021-06-30T17:30:52Z</time>
      </trkpt>
      <trkpt lat="45.85442" lon="4.68849">
        <ele>201</ele>
        <time>2021-06-30T17:31:24Z</time>
      </trkpt>
      <trkpt lat="45.85402" lon="4.68834">
        <ele>201</ele>
        <time>2021-06-30T17:31:57Z</time>
      </trkpt>
      <trkpt lat="45.85388" lon="4.68893">
        <ele>202</ele>
        <time>2021-06-30T17:32:32Z</time>
      </trkpt>
      <trkpt lat="45.85381" lon="4.68917">
        <ele>202</ele>
        <time>2021-06-30T17:32:47Z</time>
      </trkpt>
      <trkpt lat="45.85371" lon="4.68942">
        <ele>202</ele>
        <time>2021-06-30T17:33:03Z</time>
      </trkpt>
      <trkpt lat="45.85356" lon="4.68974">
        <ele>202</ele>
        <time>2021-06-30T17:33:24Z</time>
      </trkpt>
      <trkpt lat="45.85314" lon="4.69055">
        <ele>203</ele>
        <time>2021-06-30T17:34:20Z</time>
      </trkpt>
      <trkpt lat="45.85261" lon="4.69146">
        <ele>204</ele>
        <time>2021-06-30T17:35:27Z</time>
      </trkpt>
      <trkpt lat="45.85246" lon="4.69167">
        <ele>204</ele>
        <time>2021-06-30T17:35:43Z</time>
      </trkpt>
      <trkpt lat="45.85238" lon="4.69173">
        <ele>204</ele>
        <time>2021-06-30T17:35:51Z</time>
      </trkpt>
      <trkpt lat="45.85204" lon="4.69183">
        <ele>205</ele>
        <time>2021-06-30T17:36:18Z</time>
      </trkpt>
      <trkpt lat="45.85171" lon="4.69195">
        <ele>207</ele>
        <time>2021-06-30T17:36:46Z</time>
      </trkpt>
      <trkpt lat="45.85176" lon="4.6926">
        <ele>208</ele>
        <time>2021-06-30T17:37:22Z</time>
      </trkpt>
      <trkpt lat="45.85177" lon="4.69265">
        <ele>208</ele>
        <time>2021-06-30T17:37:25Z</time>
      </trkpt>
      <trkpt lat="45.85186" lon="4.69274">
        <ele>208</ele>
        <time>2021-06-30T17:37:34Z</time>
      </trkpt>
      <trkpt lat="45.85138" lon="4.69466">
        <ele>211</ele>
        <time>2021-06-30T17:39:28Z</time>
      </trkpt>
      <trkpt lat="45.8512" lon="4.69598">
        <ele>212</ele>
        <time>2021-06-30T17:40:43Z</time>
      </trkpt>
      <trkpt lat="45.8512" lon="4.69656">
        <ele>213</ele>
        <time>2021-06-30T17:41:15Z</time>
      </trkpt>
      <trkpt lat="45.85129" lon="4.69679">
        <ele>212</ele>
        <time>2021-06-30T17:41:30Z</time>
      </trkpt>
      <trkpt lat="45.85129" lon="4.69707">
        <ele>213</ele>
        <time>2021-06-30T17:41:45Z</time>
      </trkpt>
      <trkpt lat="45.85139" lon="4.69792">
        <ele>217</ele>
        <time>2021-06-30T17:42:33Z</time>
      </trkpt>
      <trkpt lat="45.85149" lon="4.69815">
        <ele>218</ele>
        <time>2021-06-30T17:42:48Z</time>
      </trkpt>
      <trkpt lat="45.85145" lon="4.69831">
        <ele>220</ele>
        <time>2021-06-30T17:42:58Z</time>
      </trkpt>
      <trkpt lat="45.85111" lon="4.6985">
        <ele>224</ele>
        <time>2021-06-30T17:43:27Z</time>
      </trkpt>
      <trkpt lat="45.85082" lon="4.69877">
        <ele>229</ele>
        <time>2021-06-30T17:43:55Z</time>
      </trkpt>
      <trkpt lat="45.84998" lon="4.69918">
        <ele>236</ele>
        <time>2021-06-30T17:45:06Z</time>
      </trkpt>
      <trkpt lat="45.84968" lon="4.6994">
        <ele>239</ele>
        <time>2021-06-30T17:45:33Z</time>
      </trkpt>
      <trkpt lat="45.84943" lon="4.69952">
        <ele>241</ele>
        <time>2021-06-30T17:45:54Z</time>
      </trkpt>
      <trkpt lat="45.84905" lon="4.6995">
        <ele>245</ele>
        <time>2021-06-30T17:46:24Z</time>
      </trkpt>
      <trkpt lat="45.84862" lon="4.69972">
        <ele>253</ele>
        <time>2021-06-30T17:47:01Z</time>
      </trkpt>
      <trkpt lat="45.84852" lon="4.69979">
        <ele>255</ele>
        <time>2021-06-30T17:47:10Z</time>
      </trkpt>
      <trkpt lat="45.84839" lon="4.69996">
        <ele>259</ele>
        <time>2021-06-30T17:47:24Z</time>
      </trkpt>
      <trkpt lat="45.84809" lon="4.70016">
        <ele>262</ele>
        <time>2021-06-30T17:47:50Z</time>
      </trkpt>
      <trkpt lat="45.84777" lon="4.70018">
        <ele>264</ele>
        <time>2021-06-30T17:48:16Z</time>
      </trkpt>
      <trkpt lat="45.84759" lon="4.70023">
        <ele>265</ele>
        <time>2021-06-30T17:48:31Z</time>
      </trkpt>
      <trkpt lat="45.8473" lon="4.70048">
        <ele>267</ele>
        <time>2021-06-30T17:48:58Z</time>
      </trkpt>
      <trkpt lat="45.84674" lon="4.70088">
        <ele>272</ele>
        <time>2021-06-30T17:49:48Z</time>
      </trkpt>
      <trkpt lat="45.84658" lon="4.70106">
        <ele>273</ele>
        <time>2021-06-30T17:50:04Z</time>
      </trkpt>
      <trkpt lat="45.84638" lon="4.70138">
        <ele>273</ele>
        <time>2021-06-30T17:50:28Z</time>
      </trkpt>
      <trkpt lat="45.84622" lon="4.70153">
        <ele>273</ele>
        <time>2021-06-30T17:50:43Z</time>
      </trkpt>
      <trkpt lat="45.84587" lon="4.70206">
        <ele>273</ele>
        <time>2021-06-30T17:51:24Z</time>
      </trkpt>
      <trkpt lat="45.8458" lon="4.7021">
        <ele>273</ele>
        <time>2021-06-30T17:51:30Z</time>
      </trkpt>
      <trkpt lat="45.84555" lon="4.70247">
        <ele>275</ele>
        <time>2021-06-30T17:51:59Z</time>
      </trkpt>
      <trkpt lat="45.84497" lon="4.7018">
        <ele>274</ele>
        <time>2021-06-30T17:52:59Z</time>
      </trkpt>
      <trkpt lat="45.8447" lon="4.70144">
        <ele>274</ele>
        <time>2021-06-30T17:53:28Z</time>
      </trkpt>
      <trkpt lat="45.84438" lon="4.70127">
        <ele>274</ele>
        <time>2021-06-30T17:53:55Z</time>
      </trkpt>
      <trkpt lat="45.84422" lon="4.70121">
        <ele>274</ele>
        <time>2021-06-30T17:54:09Z</time>
      </trkpt>
      <trkpt lat="45.84361" lon="4.70114">
        <ele>275</ele>
        <time>2021-06-30T17:54:58Z</time>
      </trkpt>
      <trkpt lat="45.84342" lon="4.70104">
        <ele>275</ele>
        <time>2021-06-30T17:55:14Z</time>
      </trkpt>
      <trkpt lat="45.84318" lon="4.70087">
        <ele>276</ele>
        <time>2021-06-30T17:55:35Z</time>
      </trkpt>
      <trkpt lat="45.84285" lon="4.70053">
        <ele>276</ele>
        <time>2021-06-30T17:56:08Z</time>
      </trkpt>
      <trkpt lat="45.84264" lon="4.7004">
        <ele>276</ele>
        <time>2021-06-30T17:56:26Z</time>
      </trkpt>
      <trkpt lat="45.84248" lon="4.70041">
        <ele>276</ele>
        <time>2021-06-30T17:56:39Z</time>
      </trkpt>
      <trkpt lat="45.84237" lon="4.70045">
        <ele>276</ele>
        <time>2021-06-30T17:56:48Z</time>
      </trkpt>
      <trkpt lat="45.84145" lon="4.70108">
        <ele>277</ele>
        <time>2021-06-30T17:58:10Z</time>
      </trkpt>
      <trkpt lat="45.84099" lon="4.70143">
        <ele>279</ele>
        <time>2021-06-30T17:58:51Z</time>
      </trkpt>
      <trkpt lat="45.84112" lon="4.70354">
        <ele>285</ele>
        <time>2021-06-30T18:00:49Z</time>
      </trkpt>
      <trkpt lat="45.84028" lon="4.70403">
        <ele>288</ele>
        <time>2021-06-30T18:02:02Z</time>
      </trkpt>
      <trkpt lat="45.83974" lon="4.70424">
        <ele>288</ele>
        <time>2021-06-30T18:02:47Z</time>
      </trkpt>
      <trkpt lat="45.83929" lon="4.70456">
        <ele>288</ele>
        <time>2021-06-30T18:03:27Z</time>
      </trkpt>
      <trkpt lat="45.8393" lon="4.70469">
        <ele>289</ele>
        <time>2021-06-30T18:03:34Z</time>
      </trkpt>
      <trkpt lat="45.8393" lon="4.70531">
        <ele>289</ele>
        <time>2021-06-30T18:04:09Z</time>
      </trkpt>
      <trkpt lat="45.83933" lon="4.70684">
        <ele>292</ele>
        <time>2021-06-30T18:05:34Z</time>
      </trkpt>
      <trkpt lat="45.83929" lon="4.70735">
        <ele>292</ele>
        <time>2021-06-30T18:06:03Z</time>
      </trkpt>
      <trkpt lat="45.83919" lon="4.70778">
        <ele>294</ele>
        <time>2021-06-30T18:06:28Z</time>
      </trkpt>
      <trkpt lat="45.83857" lon="4.70884">
        <ele>295</ele>
        <time>2021-06-30T18:07:45Z</time>
      </trkpt>
      <trkpt lat="45.83789" lon="4.71002">
        <ele>293</ele>
        <time>2021-06-30T18:09:11Z</time>
      </trkpt>
      <trkpt lat="45.83748" lon="4.71072">
        <ele>292</ele>
        <time>2021-06-30T18:10:02Z</time>
      </trkpt>
      <trkpt lat="45.83747" lon="4.71075">
        <ele>292</ele>
        <time>2021-06-30T18:10:04Z</time>
      </trkpt>
      <trkpt lat="45.83733" lon="4.71102">
        <ele>293</ele>
        <time>2021-06-30T18:10:23Z</time>
      </trkpt>
      <trkpt lat="45.83705" lon="4.7116">
        <ele>294</ele>
        <time>2021-06-30T18:11:02Z</time>
      </trkpt>
      <trkpt lat="45.83689" lon="4.71196">
        <ele>292</ele>
        <time>2021-06-30T18:11:26Z</time>
      </trkpt>
      <trkpt lat="45.83649" lon="4.7136">
        <ele>290</ele>
        <time>2021-06-30T18:13:03Z</time>
      </trkpt>
      <trkpt lat="45.83635" lon="4.71419">
        <ele>290</ele>
        <time>2021-06-30T18:13:37Z</time>
      </trkpt>
      <trkpt lat="45.83622" lon="4.71465">
        <ele>289</ele>
        <time>2021-06-30T18:14:05Z</time>
      </trkpt>
      <trkpt lat="45.83613" lon="4.71479">
        <ele>289</ele>
        <time>2021-06-30T18:14:16Z</time>
      </trkpt>
      <trkpt lat="45.83604" lon="4.71491">
        <ele>289</ele>
        <time>2021-06-30T18:14:26Z</time>
      </trkpt>
      <trkpt lat="45.83588" lon="4.715">
        <ele>290</ele>
        <time>2021-06-30T18:14:39Z</time>
      </trkpt>
      <trkpt lat="45.83582" lon="4.71503">
        <ele>290</ele>
        <time>2021-06-30T18:14:44Z</time>
      </trkpt>
      <trkpt lat="45.83581" lon="4.71501">
        <ele>290</ele>
        <time>2021-06-30T18:14:46Z</time>
      </trkpt>
      <trkpt lat="45.83575" lon="4.71498">
        <ele>290</ele>
        <time>2021-06-30T18:14:51Z</time>
      </trkpt>
      <trkpt lat="45.8357" lon="4.71504">
        <ele>290</ele>
        <time>2021-06-30T18:14:56Z</time>
      </trkpt>
      <trkpt lat="45.8357" lon="4.71507">
        <ele>289</ele>
        <time>2021-06-30T18:14:58Z</time>
      </trkpt>
      <trkpt lat="45.83564" lon="4.71504">
        <ele>290</ele>
        <time>2021-06-30T18:15:03Z</time>
      </trkpt>
      <trkpt lat="45.83541" lon="4.71508">
        <ele>290</ele>
        <time>2021-06-30T18:15:21Z</time>
      </trkpt>
      <trkpt lat="45.8353" lon="4.71508">
        <ele>291</ele>
        <time>2021-06-30T18:15:30Z</time>
      </trkpt>
      <trkpt lat="45.83462" lon="4.71489">
        <ele>293</ele>
        <time>2021-06-30T18:16:26Z</time>
      </trkpt>
      <trkpt lat="45.83456" lon="4.71485">
        <ele>293</ele>
        <time>2021-06-30T18:16:31Z</time>
      </trkpt>
      <trkpt lat="45.83448" lon="4.7153">
        <ele>288</ele>
        <time>2021-06-30T18:16:57Z</time>
      </trkpt>
      <trkpt lat="45.83442" lon="4.71576">
        <ele>283</ele>
        <time>2021-06-30T18:17:23Z</time>
      </trkpt>
      <trkpt lat="45.83436" lon="4.71591">
        <ele>282</ele>
        <time>2021-06-30T18:17:33Z</time>
      </trkpt>
      <trkpt lat="45.83418" lon="4.71655">
        <ele>275</ele>
        <time>2021-06-30T18:18:11Z</time>
      </trkpt>
      <trkpt lat="45.83418" lon="4.71665">
        <ele>274</ele>
        <time>2021-06-30T18:18:17Z</time>
      </trkpt>
      <trkpt lat="45.83416" lon="4.71668">
        <ele>274</ele>
        <time>2021-06-30T18:18:19Z</time>
      </trkpt>
      <trkpt lat="45.83413" lon="4.71666">
        <ele>274</ele>
        <time>2021-06-30T18:18:22Z</time>
      </trkpt>
      <trkpt lat="45.83408" lon="4.71662">
        <ele>275</ele>
        <time>2021-06-30T18:18:26Z</time>
      </trkpt>
      <trkpt lat="45.83404" lon="4.71666">
        <ele>275</ele>
        <time>2021-06-30T18:18:30Z</time>
      </trkpt>
      <trkpt lat="45.83402" lon="4.71679">
        <ele>275</ele>
        <time>2021-06-30T18:18:38Z</time>
      </trkpt>
      <trkpt lat="45.83405" lon="4.71702">
        <ele>274</ele>
        <time>2021-06-30T18:18:51Z</time>
      </trkpt>
      <trkpt lat="45.83417" lon="4.71723">
        <ele>273</ele>
        <time>2021-06-30T18:19:06Z</time>
      </trkpt>
      <trkpt lat="45.83429" lon="4.71777">
        <ele>273</ele>
        <time>2021-06-30T18:19:37Z</time>
      </trkpt>
      <trkpt lat="45.83436" lon="4.71807">
        <ele>274</ele>
        <time>2021-06-30T18:19:55Z</time>
      </trkpt>
      <trkpt lat="45.83442" lon="4.71836">
        <ele>274</ele>
        <time>2021-06-30T18:20:12Z</time>
      </trkpt>
      <trkpt lat="45.83444" lon="4.71852">
        <ele>274</ele>
        <time>2021-06-30T18:20:21Z</time>
      </trkpt>
      <trkpt lat="45.83442" lon="4.71865">
        <ele>274</ele>
        <time>2021-06-30T18:20:28Z</time>
      </trkpt>
      <trkpt lat="45.83434" lon="4.71879">
        <ele>273</ele>
        <time>2021-06-30T18:20:39Z</time>
      </trkpt>
      <trkpt lat="45.83425" lon="4.71891">
        <ele>273</ele>
        <time>2021-06-30T18:20:48Z</time>
      </trkpt>
      <trkpt lat="45.83421" lon="4.71901">
        <ele>272</ele>
        <time>2021-06-30T18:20:55Z</time>
      </trkpt>
      <trkpt lat="45.83399" lon="4.72">
        <ele>273</ele>
        <time>2021-06-30T18:21:53Z</time>
      </trkpt>
      <trkpt lat="45.83398" lon="4.72009">
        <ele>274</ele>
        <time>2021-06-30T18:21:58Z</time>
      </trkpt>
      <trkpt lat="45.83408" lon="4.72026">
        <ele>275</ele>
        <time>2021-06-30T18:22:10Z</time>
      </trkpt>
      <trkpt lat="45.83431" lon="4.72044">
        <ele>276</ele>
        <time>2021-06-30T18:22:31Z</time>
      </trkpt>
      <trkpt lat="45.83439" lon="4.72052">
        <ele>276</ele>
        <time>2021-06-30T18:22:39Z</time>
      </trkpt>
      <trkpt lat="45.83433" lon="4.72058">
        <ele>277</ele>
        <time>2021-06-30T18:22:45Z</time>
      </trkpt>
      <trkpt lat="45.83407" lon="4.72142">
        <ele>281</ele>
        <time>2021-06-30T18:23:36Z</time>
      </trkpt>
      <trkpt lat="45.83329" lon="4.72203">
        <ele>283</ele>
        <time>2021-06-30T18:24:47Z</time>
      </trkpt>
      <trkpt lat="45.8328" lon="4.7225">
        <ele>287</ele>
        <time>2021-06-30T18:25:34Z</time>
      </trkpt>
      <trkpt lat="45.83217" lon="4.72302">
        <ele>288</ele>
        <time>2021-06-30T18:26:33Z</time>
      </trkpt>
      <trkpt lat="45.83238" lon="4.72476">
        <ele>281</ele>
        <time>2021-06-30T18:28:11Z</time>
      </trkpt>
      <trkpt lat="45.83237" lon="4.72495">
        <ele>281</ele>
        <time>2021-06-30T18:28:22Z</time>
      </trkpt>
      <trkpt lat="45.83223" lon="4.72568">
        <ele>283</ele>
        <time>2021-06-30T18:29:04Z</time>
      </trkpt>
      <trkpt lat="45.83211" lon="4.72656">
        <ele>286</ele>
        <time>2021-06-30T18:29:54Z</time>
      </trkpt>
      <trkpt lat="45.83185" lon="4.72647">
        <ele>287</ele>
        <time>2021-06-30T18:30:16Z</time>
      </trkpt>
      <trkpt lat="45.83166" lon="4.72631">
        <ele>288</ele>
        <time>2021-06-30T18:30:33Z</time>
      </trkpt>
      <trkpt lat="45.83161" lon="4.7264">
        <ele>288</ele>
        <time>2021-06-30T18:30:40Z</time>
      </trkpt>
      <trkpt lat="45.83151" lon="4.72695">
        <ele>286</ele>
        <time>2021-06-30T18:31:11Z</time>
      </trkpt>
      <trkpt lat="45.83152" lon="4.72707">
        <ele>286</ele>
        <time>2021-06-30T18:31:18Z</time>
      </trkpt>
      <trkpt lat="45.83155" lon="4.7272">
        <ele>285</ele>
        <time>2021-06-30T18:31:26Z</time>
      </trkpt>
      <trkpt lat="45.83159" lon="4.72727">
        <ele>284</ele>
        <time>2021-06-30T18:31:31Z</time>
      </trkpt>
      <trkpt lat="45.83139" lon="4.72757">
        <ele>283</ele>
        <time>2021-06-30T18:31:54Z</time>
      </trkpt>
      <trkpt lat="45.83113" lon="4.72776">
        <ele>284</ele>
        <time>2021-06-30T18:32:17Z</time>
      </trkpt>
      <trkpt lat="45.83085" lon="4.7279">
        <ele>284</ele>
        <time>2021-06-30T18:32:41Z</time>
      </trkpt>
      <trkpt lat="45.83078" lon="4.728">
        <ele>285</ele>
        <time>2021-06-30T18:32:49Z</time>
      </trkpt>
      <trkpt lat="45.83072" lon="4.72816">
        <ele>285</ele>
        <time>2021-06-30T18:32:59Z</time>
      </trkpt>
      <trkpt lat="45.8307" lon="4.72832">
        <ele>284</ele>
        <time>2021-06-30T18:33:08Z</time>
      </trkpt>
      <trkpt lat="45.83072" lon="4.72878">
        <ele>286</ele>
        <time>2021-06-30T18:33:34Z</time>
      </trkpt>
      <trkpt lat="45.83071" lon="4.72889">
        <ele>287</ele>
        <time>2021-06-30T18:33:40Z</time>
      </trkpt>
      <trkpt lat="45.83063" lon="4.72907">
        <ele>288</ele>
        <time>2021-06-30T18:33:52Z</time>
      </trkpt>
      <trkpt lat="45.83056" lon="4.72913">
        <ele>289</ele>
        <time>2021-06-30T18:33:58Z</time>
      </trkpt>
      <trkpt lat="45.83026" lon="4.72928">
        <ele>292</ele>
        <time>2021-06-30T18:34:24Z</time>
      </trkpt>
      <trkpt lat="45.82998" lon="4.7295">
        <ele>295</ele>
        <time>2021-06-30T18:34:49Z</time>
      </trkpt>
      <trkpt lat="45.82976" lon="4.72958">
        <ele>298</ele>
        <time>2021-06-30T18:35:08Z</time>
      </trkpt>
      <trkpt lat="45.8297" lon="4.72963">
        <ele>299</ele>
        <time>2021-06-30T18:35:13Z</time>
      </trkpt>
      <trkpt lat="45.82957" lon="4.7298">
        <ele>301</ele>
        <time>2021-06-30T18:35:27Z</time>
      </trkpt>
      <trkpt lat="45.82928" lon="4.73001">
        <ele>305</ele>
        <time>2021-06-30T18:35:53Z</time>
      </trkpt>
      <trkpt lat="45.82917" lon="4.73">
        <ele>306</ele>
        <time>2021-06-30T18:36:02Z</time>
      </trkpt>
      <trkpt lat="45.82912" lon="4.72996">
        <ele>306</ele>
        <time>2021-06-30T18:36:07Z</time>
      </trkpt>
      <trkpt lat="45.8289" lon="4.72947">
        <ele>307</ele>
        <time>2021-06-30T18:36:39Z</time>
      </trkpt>
      <trkpt lat="45.82881" lon="4.7294">
        <ele>308</ele>
        <time>2021-06-30T18:36:47Z</time>
      </trkpt>
      <trkpt lat="45.82877" lon="4.72941">
        <ele>309</ele>
        <time>2021-06-30T18:36:51Z</time>
      </trkpt>
      <trkpt lat="45.82783" lon="4.73033">
        <ele>321</ele>
        <time>2021-06-30T18:38:22Z</time>
      </trkpt>
      <trkpt lat="45.82759" lon="4.73067">
        <ele>327</ele>
        <time>2021-06-30T18:38:49Z</time>
      </trkpt>
      <trkpt lat="45.82676" lon="4.73138">
        <ele>337</ele>
        <time>2021-06-30T18:40:06Z</time>
      </trkpt>
      <trkpt lat="45.82639" lon="4.73162">
        <ele>341</ele>
        <time>2021-06-30T18:40:39Z</time>
      </trkpt>
      <trkpt lat="45.82642" lon="4.73178">
        <ele>342</ele>
        <time>2021-06-30T18:40:48Z</time>
      </trkpt>
      <trkpt lat="45.82651" lon="4.73257">
        <ele>344</ele>
        <time>2021-06-30T18:41:33Z</time>
      </trkpt>
      <trkpt lat="45.82673" lon="4.73413">
        <ele>349</ele>
        <time>2021-06-30T18:43:01Z</time>
      </trkpt>
      <trkpt lat="45.82672" lon="4.73486">
        <ele>349</ele>
        <time>2021-06-30T18:43:42Z</time>
      </trkpt>
      <trkpt lat="45.82664" lon="4.73519">
        <ele>348</ele>
        <time>2021-06-30T18:44:02Z</time>
      </trkpt>
      <trkpt lat="45.82655" lon="4.7355">
        <ele>347</ele>
        <time>2021-06-30T18:44:20Z</time>
      </trkpt>
      <trkpt lat="45.82639" lon="4.73597">
        <ele>346</ele>
        <time>2021-06-30T18:44:49Z</time>
      </trkpt>
      <trkpt lat="45.82624" lon="4.73632">
        <ele>345</ele>
        <time>2021-06-30T18:45:12Z</time>
      </trkpt>
      <trkpt lat="45.82619" lon="4.73651">
        <ele>344</ele>
        <time>2021-06-30T18:45:24Z</time>
      </trkpt>
      <trkpt lat="45.82618" lon="4.73671">
        <ele>343</ele>
        <time>2021-06-30T18:45:35Z</time>
      </trkpt>
      <trkpt lat="45.82613" lon="4.73694">
        <ele>342</ele>
        <time>2021-06-30T18:45:48Z</time>
      </trkpt>
      <trkpt lat="45.82604" lon="4.73708">
        <ele>341</ele>
        <time>2021-06-30T18:45:59Z</time>
      </trkpt>
      <trkpt lat="45.82591" lon="4.73719">
        <ele>341</ele>
        <time>2021-06-30T18:46:11Z</time>
      </trkpt>
      <trkpt lat="45.82581" lon="4.73721">
        <ele>341</ele>
        <time>2021-06-30T18:46:19Z</time>
      </trkpt>
      <trkpt lat="45.82576" lon="4.73754">
        <ele>340</ele>
        <time>2021-06-30T18:46:38Z</time>
      </trkpt>
      <trkpt lat="45.82555" lon="4.7382">
        <ele>338</ele>
        <time>2021-06-30T18:47:18Z</time>
      </trkpt>
      <trkpt lat="45.82515" lon="4.73926">
        <ele>337</ele>
        <time>2021-06-30T18:48:26Z</time>
      </trkpt>
      <trkpt lat="45.82464" lon="4.74044">
        <ele>338</ele>
        <time>2021-06-30T18:49:43Z</time>
      </trkpt>
      <trkpt lat="45.82421" lon="4.74155">
        <ele>341</ele>
        <time>2021-06-30T18:50:54Z</time>
      </trkpt>
      <trkpt lat="45.82408" lon="4.74206">
        <ele>342</ele>
        <time>2021-06-30T18:51:24Z</time>
      </trkpt>
      <trkpt lat="45.82407" lon="4.74236">
        <ele>342</ele>
        <time>2021-06-30T18:51:41Z</time>
      </trkpt>
      <trkpt lat="45.82407" lon="4.74273">
        <ele>343</ele>
        <time>2021-06-30T18:52:02Z</time>
      </trkpt>
      <trkpt lat="45.82403" lon="4.74297">
        <ele>344</ele>
        <time>2021-06-30T18:52:16Z</time>
      </trkpt>
      <trkpt lat="45.82398" lon="4.74312">
        <ele>344</ele>
        <time>2021-06-30T18:52:25Z</time>
      </trkpt>
      <trkpt lat="45.82389" lon="4.74328">
        <ele>344</ele>
        <time>2021-06-30T18:52:36Z</time>
      </trkpt>
      <trkpt lat="45.82346" lon="4.74387">
        <ele>349</ele>
        <time>2021-06-30T18:53:24Z</time>
      </trkpt>
      <trkpt lat="45.82321" lon="4.74424">
        <ele>352</ele>
        <time>2021-06-30T18:53:53Z</time>
      </trkpt>
      <trkpt lat="45.82305" lon="4.74405">
        <ele>349</ele>
        <time>2021-06-30T18:54:09Z</time>
      </trkpt>
      <trkpt lat="45.82283" lon="4.74391">
        <ele>347</ele>
        <time>2021-06-30T18:54:29Z</time>
      </trkpt>
      <trkpt lat="45.82262" lon="4.74385">
        <ele>346</ele>
        <time>2021-06-30T18:54:46Z</time>
      </trkpt>
      <trkpt lat="45.82257" lon="4.74384">
        <ele>346</ele>
        <time>2021-06-30T18:54:50Z</time>
      </trkpt>
      <trkpt lat="45.82248" lon="4.74381">
        <ele>346</ele>
        <time>2021-06-30T18:54:57Z</time>
      </trkpt>
      <trkpt lat="45.82221" lon="4.74381">
        <ele>344</ele>
        <time>2021-06-30T18:55:19Z</time>
      </trkpt>
      <trkpt lat="45.82179" lon="4.74394">
        <ele>343</ele>
        <time>2021-06-30T18:55:53Z</time>
      </trkpt>
      <trkpt lat="45.82167" lon="4.74393">
        <ele>342</ele>
        <time>2021-06-30T18:56:03Z</time>
      </trkpt>
      <trkpt lat="45.82104" lon="4.74358">
        <ele>336</ele>
        <time>2021-06-30T18:56:57Z</time>
      </trkpt>
      <trkpt lat="45.82056" lon="4.74345">
        <ele>333</ele>
        <time>2021-06-30T18:57:36Z</time>
      </trkpt>
      <trkpt lat="45.82039" lon="4.7435">
        <ele>333</ele>
        <time>2021-06-30T18:57:50Z</time>
      </trkpt>
      <trkpt lat="45.82014" lon="4.74364">
        <ele>334</ele>
        <time>2021-06-30T18:58:11Z</time>
      </trkpt>
      <trkpt lat="45.81991" lon="4.74384">
        <ele>334</ele>
        <time>2021-06-30T18:58:33Z</time>
      </trkpt>
      <trkpt lat="45.81982" lon="4.74391">
        <ele>333</ele>
        <time>2021-06-30T18:58:41Z</time>
      </trkpt>
      <trkpt lat="45.81977" lon="4.74386">
        <ele>333</ele>
        <time>2021-06-30T18:58:46Z</time>
      </trkpt>
      <trkpt lat="45.81961" lon="4.74375">
        <ele>330</ele>
        <time>2021-06-30T18:59:00Z</time>
      </trkpt>
      <trkpt lat="45.8194" lon="4.74367">
        <ele>328</ele>
        <time>2021-06-30T18:59:18Z</time>
      </trkpt>
      <trkpt lat="45.81927" lon="4.74366">
        <ele>327</ele>
        <time>2021-06-30T18:59:28Z</time>
      </trkpt>
      <trkpt lat="45.81915" lon="4.74371">
        <ele>326</ele>
        <time>2021-06-30T18:59:38Z</time>
      </trkpt>
      <trkpt lat="45.81912" lon="4.74375">
        <ele>326</ele>
        <time>2021-06-30T18:59:41Z</time>
      </trkpt>
      <trkpt lat="45.81908" lon="4.74383">
        <ele>326</ele>
        <time>2021-06-30T18:59:47Z</time>
      </trkpt>
      <trkpt lat="45.81894" lon="4.7442">
        <ele>324</ele>
        <time>2021-06-30T19:00:10Z</time>
      </trkpt>
      <trkpt lat="45.81883" lon="4.74459">
        <ele>324</ele>
        <time>2021-06-30T19:00:34Z</time>
      </trkpt>
      <trkpt lat="45.81884" lon="4.74523">
        <ele>327</ele>
        <time>2021-06-30T19:01:09Z</time>
      </trkpt>
      <trkpt lat="45.81882" lon="4.74537">
        <ele>328</ele>
        <time>2021-06-30T19:01:17Z</time>
      </trkpt>
      <trkpt lat="45.81873" lon="4.74533">
        <ele>328</ele>
        <time>2021-06-30T19:01:25Z</time>
      </trkpt>
      <trkpt lat="45.81821" lon="4.74524">
        <ele>328</ele>
        <time>2021-06-30T19:02:07Z</time>
      </trkpt>
      <trkpt lat="45.81792" lon="4.74539">
        <ele>332</ele>
        <time>2021-06-30T19:02:32Z</time>
      </trkpt>
      <trkpt lat="45.81778" lon="4.74542">
        <ele>334</ele>
        <time>2021-06-30T19:02:43Z</time>
      </trkpt>
      <trkpt lat="45.8173" lon="4.74537">
        <ele>336</ele>
        <time>2021-06-30T19:03:22Z</time>
      </trkpt>
      <trkpt lat="45.81725" lon="4.74565">
        <ele>340</ele>
        <time>2021-06-30T19:03:38Z</time>
      </trkpt>
      <trkpt lat="45.81715" lon="4.74607">
        <ele>343</ele>
        <time>2021-06-30T19:04:02Z</time>
      </trkpt>
      <trkpt lat="45.81711" lon="4.74613">
        <ele>344</ele>
        <time>2021-06-30T19:04:07Z</time>
      </trkpt>
      <trkpt lat="45.8169" lon="4.7463">
        <ele>345</ele>
        <time>2021-06-30T19:04:26Z</time>
      </trkpt>
      <trkpt lat="45.81668" lon="4.74642">
        <ele>346</ele>
        <time>2021-06-30T19:04:45Z</time>
      </trkpt>
      <trkpt lat="45.81669" lon="4.7465">
        <ele>346</ele>
        <time>2021-06-30T19:04:50Z</time>
      </trkpt>
      <trkpt lat="45.81668" lon="4.74661">
        <ele>347</ele>
        <time>2021-06-30T19:04:56Z</time>
      </trkpt>
      <trkpt lat="45.81641" lon="4.74688">
        <ele>344</ele>
        <time>2021-06-30T19:05:22Z</time>
      </trkpt>
      <trkpt lat="45.81636" lon="4.74695">
        <ele>343</ele>
        <time>2021-06-30T19:05:28Z</time>
      </trkpt>
      <trkpt lat="45.81631" lon="4.74697">
        <ele>342</ele>
        <time>2021-06-30T19:05:32Z</time>
      </trkpt>
      <trkpt lat="45.81595" lon="4.74722">
        <ele>338</ele>
        <time>2021-06-30T19:06:04Z</time>
      </trkpt>
      <trkpt lat="45.81592" lon="4.74724">
        <ele>338</ele>
        <time>2021-06-30T19:06:07Z</time>
      </trkpt>
      <trkpt lat="45.81584" lon="4.74729">
        <ele>337</ele>
        <time>2021-06-30T19:06:14Z</time>
      </trkpt>
      <trkpt lat="45.81579" lon="4.74735">
        <ele>336</ele>
        <time>2021-06-30T19:06:19Z</time>
      </trkpt>
      <trkpt lat="45.81559" lon="4.74765">
        <ele>336</ele>
        <time>2021-06-30T19:06:42Z</time>
      </trkpt>
      <trkpt lat="45.8154" lon="4.74789">
        <ele>336</ele>
        <time>2021-06-30T19:07:02Z</time>
      </trkpt>
      <trkpt lat="45.8153" lon="4.74795">
        <ele>335</ele>
        <time>2021-06-30T19:07:11Z</time>
      </trkpt>
      <trkpt lat="45.81515" lon="4.74801">
        <ele>335</ele>
        <time>2021-06-30T19:07:23Z</time>
      </trkpt>
      <trkpt lat="45.8151" lon="4.74803">
        <ele>335</ele>
        <time>2021-06-30T19:07:28Z</time>
      </trkpt>
      <trkpt lat="45.81503" lon="4.74806">
        <ele>335</ele>
        <time>2021-06-30T19:07:33Z</time>
      </trkpt>
      <trkpt lat="45.81482" lon="4.74808">
        <ele>337</ele>
        <time>2021-06-30T19:07:50Z</time>
      </trkpt>
      <trkpt lat="45.81468" lon="4.74806">
        <ele>338</ele>
        <time>2021-06-30T19:08:02Z</time>
      </trkpt>
      <trkpt lat="45.81431" lon="4.74807">
        <ele>341</ele>
        <time>2021-06-30T19:08:31Z</time>
      </trkpt>
      <trkpt lat="45.81421" lon="4.74809">
        <ele>342</ele>
        <time>2021-06-30T19:08:39Z</time>
      </trkpt>
      <trkpt lat="45.81392" lon="4.74817">
        <ele>341</ele>
        <time>2021-06-30T19:09:03Z</time>
      </trkpt>
      <trkpt lat="45.81374" lon="4.74824">
        <ele>341</ele>
        <time>2021-06-30T19:09:18Z</time>
      </trkpt>
      <trkpt lat="45.81345" lon="4.74845">
        <ele>342</ele>
        <time>2021-06-30T19:09:44Z</time>
      </trkpt>
      <trkpt lat="45.81337" lon="4.7485">
        <ele>342</ele>
        <time>2021-06-30T19:09:51Z</time>
      </trkpt>
      <trkpt lat="45.8129" lon="4.74889">
        <ele>342</ele>
        <time>2021-06-30T19:10:34Z</time>
      </trkpt>
      <trkpt lat="45.81266" lon="4.74903">
        <ele>342</ele>
        <time>2021-06-30T19:10:55Z</time>
      </trkpt>
      <trkpt lat="45.81249" lon="4.7491">
        <ele>342</ele>
        <time>2021-06-30T19:11:09Z</time>
      </trkpt>
      <trkpt lat="45.8121" lon="4.74916">
        <ele>340</ele>
        <time>2021-06-30T19:11:41Z</time>
      </trkpt>
      <trkpt lat="45.81207" lon="4.74917">
        <ele>340</ele>
        <time>2021-06-30T19:11:43Z</time>
      </trkpt>
      <trkpt lat="45.81205" lon="4.74917">
        <ele>340</ele>
        <time>2021-06-30T19:11:45Z</time>
      </trkpt>
      <trkpt lat="45.81138" lon="4.74928">
        <ele>334</ele>
        <time>2021-06-30T19:12:39Z</time>
      </trkpt>
      <trkpt lat="45.81147" lon="4.74964">
        <ele>336</ele>
        <time>2021-06-30T19:13:00Z</time>
      </trkpt>
      <trkpt lat="45.81152" lon="4.74989">
        <ele>338</ele>
        <time>2021-06-30T19:13:15Z</time>
      </trkpt>
      <trkpt lat="45.81157" lon="4.75011">
        <ele>339</ele>
        <time>2021-06-30T19:13:28Z</time>
      </trkpt>
      <trkpt lat="45.81155" lon="4.75013">
        <ele>338</ele>
        <time>2021-06-30T19:13:29Z</time>
      </trkpt>
      <trkpt lat="45.81157" lon="4.75023">
        <ele>338</ele>
        <time>2021-06-30T19:13:35Z</time>
      </trkpt>
      <trkpt lat="45.81151" lon="4.75038">
        <ele>338</ele>
        <time>2021-06-30T19:13:45Z</time>
      </trkpt>
      <trkpt lat="45.81109" lon="4.75097">
        <ele>334</ele>
        <time>2021-06-30T19:14:32Z</time>
      </trkpt>
      <trkpt lat="45.81102" lon="4.75099">
        <ele>333</ele>
        <time>2021-06-30T19:14:38Z</time>
      </trkpt>
      <trkpt lat="45.81011" lon="4.75108">
        <ele>326</ele>
        <time>2021-06-30T19:15:51Z</time>
      </trkpt>
      <trkpt lat="45.80909" lon="4.75114">
        <ele>322</ele>
        <time>2021-06-30T19:17:12Z</time>
      </trkpt>
      <trkpt lat="45.80877" lon="4.75123">
        <ele>320</ele>
        <time>2021-06-30T19:17:39Z</time>
      </trkpt>
      <trkpt lat="45.8086" lon="4.75133">
        <ele>319</ele>
        <time>2021-06-30T19:17:53Z</time>
      </trkpt>
      <trkpt lat="45.80832" lon="4.75155">
        <ele>319</ele>
        <time>2021-06-30T19:18:19Z</time>
      </trkpt>
      <trkpt lat="45.80808" lon="4.75167">
        <ele>319</ele>
        <time>2021-06-30T19:18:39Z</time>
      </trkpt>
      <trkpt lat="45.80798" lon="4.75169">
        <ele>319</ele>
        <time>2021-06-30T19:18:47Z</time>
      </trkpt>
      <trkpt lat="45.80797" lon="4.75167">
        <ele>319</ele>
        <time>2021-06-30T19:18:49Z</time>
      </trkpt>
      <trkpt lat="45.80769" lon="4.75179">
        <ele>319</ele>
        <time>2021-06-30T19:19:12Z</time>
      </trkpt>
      <trkpt lat="45.80768" lon="4.75177">
        <ele>319</ele>
        <time>2021-06-30T19:19:13Z</time>
      </trkpt>
      <trkpt lat="45.80758" lon="4.75181">
        <ele>319</ele>
        <time>2021-06-30T19:19:22Z</time>
      </trkpt>
      <trkpt lat="45.80755" lon="4.75187">
        <ele>319</ele>
        <time>2021-06-30T19:19:26Z</time>
      </trkpt>
      <trkpt lat="45.807" lon="4.75227">
        <ele>322</ele>
        <time>2021-06-30T19:20:15Z</time>
      </trkpt>
      <trkpt lat="45.807" lon="4.75231">
        <ele>322</ele>
        <time>2021-06-30T19:20:17Z</time>
      </trkpt>
      <trkpt lat="45.80655" lon="4.75256">
        <ele>325</ele>
        <time>2021-06-30T19:20:56Z</time>
      </trkpt>
      <trkpt lat="45.80638" lon="4.75263">
        <ele>326</ele>
        <time>2021-06-30T19:21:10Z</time>
      </trkpt>
      <trkpt lat="45.80601" lon="4.75272">
        <ele>327</ele>
        <time>2021-06-30T19:21:40Z</time>
      </trkpt>
      <trkpt lat="45.80589" lon="4.75271">
        <ele>328</ele>
        <time>2021-06-30T19:21:50Z</time>
      </trkpt>
      <trkpt lat="45.80558" lon="4.75276">
        <ele>328</ele>
        <time>2021-06-30T19:22:15Z</time>
      </trkpt>
      <trkpt lat="45.80547" lon="4.7528">
        <ele>328</ele>
        <time>2021-06-30T19:22:24Z</time>
      </trkpt>
      <trkpt lat="45.80538" lon="4.75268">
        <ele>328</ele>
        <time>2021-06-30T19:22:34Z</time>
      </trkpt>
      <trkpt lat="45.80533" lon="4.75267">
        <ele>327</ele>
        <time>2021-06-30T19:22:38Z</time>
      </trkpt>
      <trkpt lat="45.80525" lon="4.75271">
        <ele>327</ele>
        <time>2021-06-30T19:22:45Z</time>
      </trkpt>
      <trkpt lat="45.80518" lon="4.75279">
        <ele>327</ele>
        <time>2021-06-30T19:22:52Z</time>
      </trkpt>
      <trkpt lat="45.80515" lon="4.75292">
        <ele>327</ele>
        <time>2021-06-30T19:22:59Z</time>
      </trkpt>
      <trkpt lat="45.80516" lon="4.75314">
        <ele>327</ele>
        <time>2021-06-30T19:23:12Z</time>
      </trkpt>
      <trkpt lat="45.80519" lon="4.75324">
        <ele>327</ele>
        <time>2021-06-30T19:23:18Z</time>
      </trkpt>
      <trkpt lat="45.80518" lon="4.75349">
        <ele>326</ele>
        <time>2021-06-30T19:23:32Z</time>
      </trkpt>
      <trkpt lat="45.80498" lon="4.75342">
        <ele>326</ele>
        <time>2021-06-30T19:23:48Z</time>
      </trkpt>
      <trkpt lat="45.80495" lon="4.75387">
        <ele>323</ele>
        <time>2021-06-30T19:24:14Z</time>
      </trkpt>
      <trkpt lat="45.80493" lon="4.75394">
        <ele>322</ele>
        <time>2021-06-30T19:24:18Z</time>
      </trkpt>
      <trkpt lat="45.80464" lon="4.75432">
        <ele>317</ele>
        <time>2021-06-30T19:24:49Z</time>
      </trkpt>
      <trkpt lat="45.80418" lon="4.75498">
        <ele>311</ele>
        <time>2021-06-30T19:25:41Z</time>
      </trkpt>
      <trkpt lat="45.80415" lon="4.75518">
        <ele>309</ele>
        <time>2021-06-30T19:25:53Z</time>
      </trkpt>
      <trkpt lat="45.80414" lon="4.75532">
        <ele>308</ele>
        <time>2021-06-30T19:26:01Z</time>
      </trkpt>
      <trkpt lat="45.8041" lon="4.75533">
        <ele>308</ele>
        <time>2021-06-30T19:26:04Z</time>
      </trkpt>
      <trkpt lat="45.80411" lon="4.75539">
        <ele>308</ele>
        <time>2021-06-30T19:26:07Z</time>
      </trkpt>
      <trkpt lat="45.80309" lon="4.7557">
        <ele>304</ele>
        <time>2021-06-30T19:27:31Z</time>
      </trkpt>
      <trkpt lat="45.80307" lon="4.75572">
        <ele>304</ele>
        <time>2021-06-30T19:27:33Z</time>
      </trkpt>
      <trkpt lat="45.803" lon="4.75574">
        <ele>304</ele>
        <time>2021-06-30T19:27:38Z</time>
      </trkpt>
      <trkpt lat="45.80298" lon="4.75576">
        <ele>304</ele>
        <time>2021-06-30T19:27:40Z</time>
      </trkpt>
      <trkpt lat="45.80294" lon="4.75575">
        <ele>304</ele>
        <time>2021-06-30T19:27:44Z</time>
      </trkpt>
      <trkpt lat="45.80167" lon="4.75612">
        <ele>298</ele>
        <time>2021-06-30T19:29:27Z</time>
      </trkpt>
      <trkpt lat="45.80148" lon="4.75622">
        <ele>297</ele>
        <time>2021-06-30T19:29:44Z</time>
      </trkpt>
      <trkpt lat="45.80128" lon="4.75649">
        <ele>296</ele>
        <time>2021-06-30T19:30:06Z</time>
      </trkpt>
      <trkpt lat="45.80117" lon="4.75644">
        <ele>295</ele>
        <time>2021-06-30T19:30:15Z</time>
      </trkpt>
      <trkpt lat="45.80117" lon="4.75639">
        <ele>295</ele>
        <time>2021-06-30T19:30:18Z</time>
      </trkpt>
      <trkpt lat="45.80114" lon="4.75634">
        <ele>295</ele>
        <time>2021-06-30T19:30:21Z</time>
      </trkpt>
      <trkpt lat="45.80102" lon="4.75635">
        <ele>294</ele>
        <time>2021-06-30T19:30:31Z</time>
      </trkpt>
      <trkpt lat="45.79889" lon="4.75697">
        <ele>288</ele>
        <time>2021-06-30T19:33:25Z</time>
      </trkpt>
      <trkpt lat="45.79857" lon="4.75716">
        <ele>286</ele>
        <time>2021-06-30T19:33:53Z</time>
      </trkpt>
      <trkpt lat="45.79848" lon="4.75726">
        <ele>285</ele>
        <time>2021-06-30T19:34:02Z</time>
      </trkpt>
      <trkpt lat="45.79843" lon="4.75714">
        <ele>285</ele>
        <time>2021-06-30T19:34:10Z</time>
      </trkpt>
      <trkpt lat="45.79838" lon="4.75717">
        <ele>285</ele>
        <time>2021-06-30T19:34:14Z</time>
      </trkpt>
      <trkpt lat="45.79833" lon="4.75716">
        <ele>285</ele>
        <time>2021-06-30T19:34:18Z</time>
      </trkpt>
      <trkpt lat="45.79828" lon="4.75712">
        <ele>285</ele>
        <time>2021-06-30T19:34:23Z</time>
      </trkpt>
      <trkpt lat="45.79821" lon="4.75712">
        <ele>285</ele>
        <time>2021-06-30T19:34:28Z</time>
      </trkpt>
      <trkpt lat="45.79814" lon="4.75719">
        <ele>285</ele>
        <time>2021-06-30T19:34:35Z</time>
      </trkpt>
      <trkpt lat="45.79802" lon="4.75714">
        <ele>285</ele>
        <time>2021-06-30T19:34:45Z</time>
      </trkpt>
      <trkpt lat="45.79781" lon="4.75711">
        <ele>286</ele>
        <time>2021-06-30T19:35:02Z</time>
      </trkpt>
      <trkpt lat="45.79755" lon="4.75714">
        <ele>286</ele>
        <time>2021-06-30T19:35:23Z</time>
      </trkpt>
      <trkpt lat="45.79716" lon="4.75733">
        <ele>287</ele>
        <time>2021-06-30T19:35:56Z</time>
      </trkpt>
      <trkpt lat="45.79671" lon="4.75751">
        <ele>290</ele>
        <time>2021-06-30T19:36:33Z</time>
      </trkpt>
      <trkpt lat="45.7964" lon="4.75764">
        <ele>293</ele>
        <time>2021-06-30T19:36:59Z</time>
      </trkpt>
      <trkpt lat="45.79635" lon="4.75764">
        <ele>293</ele>
        <time>2021-06-30T19:37:03Z</time>
      </trkpt>
      <trkpt lat="45.79628" lon="4.75762">
        <ele>294</ele>
        <time>2021-06-30T19:37:09Z</time>
      </trkpt>
      <trkpt lat="45.79626" lon="4.7575">
        <ele>293</ele>
        <time>2021-06-30T19:37:16Z</time>
      </trkpt>
      <trkpt lat="45.79606" lon="4.75707">
        <ele>296</ele>
        <time>2021-06-30T19:37:44Z</time>
      </trkpt>
      <trkpt lat="45.79571" lon="4.75651">
        <ele>298</ele>
        <time>2021-06-30T19:38:26Z</time>
      </trkpt>
      <trkpt lat="45.79569" lon="4.75648">
        <ele>298</ele>
        <time>2021-06-30T19:38:29Z</time>
      </trkpt>
      <trkpt lat="45.79553" lon="4.75628">
        <ele>299</ele>
        <time>2021-06-30T19:38:46Z</time>
      </trkpt>
      <trkpt lat="45.79545" lon="4.7562">
        <ele>299</ele>
        <time>2021-06-30T19:38:54Z</time>
      </trkpt>
      <trkpt lat="45.79536" lon="4.75612">
        <ele>299</ele>
        <time>2021-06-30T19:39:02Z</time>
      </trkpt>
      <trkpt lat="45.7953" lon="4.7561">
        <ele>299</ele>
        <time>2021-06-30T19:39:07Z</time>
      </trkpt>
      <trkpt lat="45.79519" lon="4.7561">
        <ele>300</ele>
        <time>2021-06-30T19:39:16Z</time>
      </trkpt>
      <trkpt lat="45.79468" lon="4.75618">
        <ele>301</ele>
        <time>2021-06-30T19:39:57Z</time>
      </trkpt>
      <trkpt lat="45.79445" lon="4.7562">
        <ele>302</ele>
        <time>2021-06-30T19:40:15Z</time>
      </trkpt>
      <trkpt lat="45.79413" lon="4.75607">
        <ele>302</ele>
        <time>2021-06-30T19:40:42Z</time>
      </trkpt>
      <trkpt lat="45.79386" lon="4.7559">
        <ele>300</ele>
        <time>2021-06-30T19:41:06Z</time>
      </trkpt>
      <trkpt lat="45.79377" lon="4.75587">
        <ele>299</ele>
        <time>2021-06-30T19:41:13Z</time>
      </trkpt>
      <trkpt lat="45.79355" lon="4.75585">
        <ele>299</ele>
        <time>2021-06-30T19:41:31Z</time>
      </trkpt>
      <trkpt lat="45.7933" lon="4.75584">
        <ele>298</ele>
        <time>2021-06-30T19:41:51Z</time>
      </trkpt>
      <trkpt lat="45.79314" lon="4.75584">
        <ele>300</ele>
        <time>2021-06-30T19:42:03Z</time>
      </trkpt>
      <trkpt lat="45.7931" lon="4.75584">
        <ele>301</ele>
        <time>2021-06-30T19:42:07Z</time>
      </trkpt>
      <trkpt lat="45.79303" lon="4.75583">
        <ele>301</ele>
        <time>2021-06-30T19:42:12Z</time>
      </trkpt>
      <trkpt lat="45.79294" lon="4.75583">
        <ele>302</ele>
        <time>2021-06-30T19:42:20Z</time>
      </trkpt>
      <trkpt lat="45.7924" lon="4.75574">
        <ele>306</ele>
        <time>2021-06-30T19:43:03Z</time>
      </trkpt>
      <trkpt lat="45.79213" lon="4.75575">
        <ele>305</ele>
        <time>2021-06-30T19:43:25Z</time>
      </trkpt>
      <trkpt lat="45.79188" lon="4.7557">
        <ele>304</ele>
        <time>2021-06-30T19:43:45Z</time>
      </trkpt>
      <trkpt lat="45.79179" lon="4.75566">
        <ele>304</ele>
        <time>2021-06-30T19:43:52Z</time>
      </trkpt>
      <trkpt lat="45.7914" lon="4.75536">
        <ele>303</ele>
        <time>2021-06-30T19:44:28Z</time>
      </trkpt>
      <trkpt lat="45.79102" lon="4.75513">
        <ele>303</ele>
        <time>2021-06-30T19:45:01Z</time>
      </trkpt>
      <trkpt lat="45.79082" lon="4.75506">
        <ele>304</ele>
        <time>2021-06-30T19:45:17Z</time>
      </trkpt>
      <trkpt lat="45.7907" lon="4.75503">
        <ele>303</ele>
        <time>2021-06-30T19:45:27Z</time>
      </trkpt>
      <trkpt lat="45.79029" lon="4.75495">
        <ele>300</ele>
        <time>2021-06-30T19:46:00Z</time>
      </trkpt>
      <trkpt lat="45.78999" lon="4.75479">
        <ele>297</ele>
        <time>2021-06-30T19:46:26Z</time>
      </trkpt>
      <trkpt lat="45.7897" lon="4.75484">
        <ele>293</ele>
        <time>2021-06-30T19:46:49Z</time>
      </trkpt>
      <trkpt lat="45.78945" lon="4.75485">
        <ele>289</ele>
        <time>2021-06-30T19:47:09Z</time>
      </trkpt>
      <trkpt lat="45.78935" lon="4.75481">
        <ele>287</ele>
        <time>2021-06-30T19:47:18Z</time>
      </trkpt>
      <trkpt lat="45.7889" lon="4.75457">
        <ele>279</ele>
        <time>2021-06-30T19:47:56Z</time>
      </trkpt>
      <trkpt lat="45.78883" lon="4.75454">
        <ele>278</ele>
        <time>2021-06-30T19:48:02Z</time>
      </trkpt>
      <trkpt lat="45.78866" lon="4.75452">
        <ele>275</ele>
        <time>2021-06-30T19:48:16Z</time>
      </trkpt>
      <trkpt lat="45.78844" lon="4.7545">
        <ele>271</ele>
        <time>2021-06-30T19:48:33Z</time>
      </trkpt>
      <trkpt lat="45.78831" lon="4.75449">
        <ele>269</ele>
        <time>2021-06-30T19:48:44Z</time>
      </trkpt>
      <trkpt lat="45.78813" lon="4.75434">
        <ele>268</ele>
        <time>2021-06-30T19:49:00Z</time>
      </trkpt>
      <trkpt lat="45.78809" lon="4.75435">
        <ele>267</ele>
        <time>2021-06-30T19:49:04Z</time>
      </trkpt>
      <trkpt lat="45.78804" lon="4.75438">
        <ele>267</ele>
        <time>2021-06-30T19:49:08Z</time>
      </trkpt>
      <trkpt lat="45.788" lon="4.75443">
        <ele>266</ele>
        <time>2021-06-30T19:49:12Z</time>
      </trkpt>
      <trkpt lat="45.78795" lon="4.75452">
        <ele>265</ele>
        <time>2021-06-30T19:49:19Z</time>
      </trkpt>
      <trkpt lat="45.78786" lon="4.75459">
        <ele>264</ele>
        <time>2021-06-30T19:49:27Z</time>
      </trkpt>
      <trkpt lat="45.78755" lon="4.75458">
        <ele>261</ele>
        <time>2021-06-30T19:49:52Z</time>
      </trkpt>
      <trkpt lat="45.7864" lon="4.75498">
        <ele>253</ele>
        <time>2021-06-30T19:51:26Z</time>
      </trkpt>
      <trkpt lat="45.78631" lon="4.75498">
        <ele>252</ele>
        <time>2021-06-30T19:51:34Z</time>
      </trkpt>
      <trkpt lat="45.78589" lon="4.75514">
        <ele>248</ele>
        <time>2021-06-30T19:52:08Z</time>
      </trkpt>
      <trkpt lat="45.78559" lon="4.75527">
        <ele>247</ele>
        <time>2021-06-30T19:52:33Z</time>
      </trkpt>
      <trkpt lat="45.78517" lon="4.7552">
        <ele>246</ele>
        <time>2021-06-30T19:53:07Z</time>
      </trkpt>
      <trkpt lat="45.78491" lon="4.75509">
        <ele>246</ele>
        <time>2021-06-30T19:53:29Z</time>
      </trkpt>
      <trkpt lat="45.78481" lon="4.75507">
        <ele>246</ele>
        <time>2021-06-30T19:53:37Z</time>
      </trkpt>
      <trkpt lat="45.7845" lon="4.75513">
        <ele>245</ele>
        <time>2021-06-30T19:54:02Z</time>
      </trkpt>
      <trkpt lat="45.78424" lon="4.75524">
        <ele>246</ele>
        <time>2021-06-30T19:54:24Z</time>
      </trkpt>
      <trkpt lat="45.78407" lon="4.75527">
        <ele>246</ele>
        <time>2021-06-30T19:54:38Z</time>
      </trkpt>
      <trkpt lat="45.78377" lon="4.75526">
        <ele>246</ele>
        <time>2021-06-30T19:55:02Z</time>
      </trkpt>
      <trkpt lat="45.78367" lon="4.75522">
        <ele>246</ele>
        <time>2021-06-30T19:55:10Z</time>
      </trkpt>
      <trkpt lat="45.78363" lon="4.75522">
        <ele>246</ele>
        <time>2021-06-30T19:55:13Z</time>
      </trkpt>
      <trkpt lat="45.78346" lon="4.75523">
        <ele>246</ele>
        <time>2021-06-30T19:55:27Z</time>
      </trkpt>
      <trkpt lat="45.78349" lon="4.75515">
        <ele>246</ele>
        <time>2021-06-30T19:55:32Z</time>
      </trkpt>
      <trkpt lat="45.78351" lon="4.75502">
        <ele>246</ele>
        <time>2021-06-30T19:55:39Z</time>
      </trkpt>
      <trkpt lat="45.78355" lon="4.75474">
        <ele>249</ele>
        <time>2021-06-30T19:55:55Z</time>
      </trkpt>
      <trkpt lat="45.78356" lon="4.75468">
        <ele>249</ele>
        <time>2021-06-30T19:55:59Z</time>
      </trkpt>
      <trkpt lat="45.7835" lon="4.75469">
        <ele>250</ele>
        <time>2021-06-30T19:56:03Z</time>
      </trkpt>
      <trkpt lat="45.78338" lon="4.7546">
        <ele>251</ele>
        <time>2021-06-30T19:56:14Z</time>
      </trkpt>
      <trkpt lat="45.78302" lon="4.75456">
        <ele>254</ele>
        <time>2021-06-30T19:56:43Z</time>
      </trkpt>
      <trkpt lat="45.78266" lon="4.75469">
        <ele>255</ele>
        <time>2021-06-30T19:57:13Z</time>
      </trkpt>
      <trkpt lat="45.78235" lon="4.75489">
        <ele>253</ele>
        <time>2021-06-30T19:57:40Z</time>
      </trkpt>
      <trkpt lat="45.78176" lon="4.75547">
        <ele>248</ele>
        <time>2021-06-30T19:58:37Z</time>
      </trkpt>
      <trkpt lat="45.78159" lon="4.75552">
        <ele>248</ele>
        <time>2021-06-30T19:58:51Z</time>
      </trkpt>
      <trkpt lat="45.78128" lon="4.75544">
        <ele>249</ele>
        <time>2021-06-30T19:59:17Z</time>
      </trkpt>
      <trkpt lat="45.78095" lon="4.75564">
        <ele>247</ele>
        <time>2021-06-30T19:59:45Z</time>
      </trkpt>
      <trkpt lat="45.78067" lon="4.75575">
        <ele>245</ele>
        <time>2021-06-30T20:00:08Z</time>
      </trkpt>
      <trkpt lat="45.77985" lon="4.75531">
        <ele>246</ele>
        <time>2021-06-30T20:01:19Z</time>
      </trkpt>
      <trkpt lat="45.77958" lon="4.75519">
        <ele>246</ele>
        <time>2021-06-30T20:01:41Z</time>
      </trkpt>
      <trkpt lat="45.77911" lon="4.75489">
        <ele>247</ele>
        <time>2021-06-30T20:02:22Z</time>
      </trkpt>
      <trkpt lat="45.77868" lon="4.75499">
        <ele>241</ele>
        <time>2021-06-30T20:02:57Z</time>
      </trkpt>
      <trkpt lat="45.77862" lon="4.75505">
        <ele>240</ele>
        <time>2021-06-30T20:03:03Z</time>
      </trkpt>
      <trkpt lat="45.77809" lon="4.75486">
        <ele>241</ele>
        <time>2021-06-30T20:03:47Z</time>
      </trkpt>
      <trkpt lat="45.77789" lon="4.75476">
        <ele>242</ele>
        <time>2021-06-30T20:04:04Z</time>
      </trkpt>
      <trkpt lat="45.77719" lon="4.75429">
        <ele>248</ele>
        <time>2021-06-30T20:05:06Z</time>
      </trkpt>
      <trkpt lat="45.77716" lon="4.75418">
        <ele>249</ele>
        <time>2021-06-30T20:05:12Z</time>
      </trkpt>
      <trkpt lat="45.77716" lon="4.75365">
        <ele>256</ele>
        <time>2021-06-30T20:05:42Z</time>
      </trkpt>
      <trkpt lat="45.77715" lon="4.7536">
        <ele>257</ele>
        <time>2021-06-30T20:05:45Z</time>
      </trkpt>
      <trkpt lat="45.77751" lon="4.7536">
        <ele>256</ele>
        <time>2021-06-30T20:06:14Z</time>
      </trkpt>
      <trkpt lat="45.77756" lon="4.75358">
        <ele>257</ele>
        <time>2021-06-30T20:06:18Z</time>
      </trkpt>
      <trkpt lat="45.77829" lon="4.75257">
        <ele>268</ele>
        <time>2021-06-30T20:07:39Z</time>
      </trkpt>
      <trkpt lat="45.77869" lon="4.75246">
        <ele>270</ele>
        <time>2021-06-30T20:08:12Z</time>
      </trkpt>
      <trkpt lat="45.7787" lon="4.75201">
        <ele>272</ele>
        <time>2021-06-30T20:08:37Z</time>
      </trkpt>
      <trkpt lat="45.7786" lon="4.75129">
        <ele>274</ele>
        <time>2021-06-30T20:09:18Z</time>
      </trkpt>
      <trkpt lat="45.7785" lon="4.75108">
        <ele>274</ele>
        <time>2021-06-30T20:09:32Z</time>
      </trkpt>
      <trkpt lat="45.77848" lon="4.75096">
        <ele>274</ele>
        <time>2021-06-30T20:09:39Z</time>
      </trkpt>
      <trkpt lat="45.77838" lon="4.74964">
        <ele>275</ele>
        <time>2021-06-30T20:10:53Z</time>
      </trkpt>
      <trkpt lat="45.77839" lon="4.74931">
        <ele>274</ele>
        <time>2021-06-30T20:11:11Z</time>
      </trkpt>
      <trkpt lat="45.77842" lon="4.74917">
        <ele>274</ele>
        <time>2021-06-30T20:11:20Z</time>
      </trkpt>
      <trkpt lat="45.77888" lon="4.74794">
        <ele>272</ele>
        <time>2021-06-30T20:12:38Z</time>
      </trkpt>
      <trkpt lat="45.77945" lon="4.74635">
        <ele>258</ele>
        <time>2021-06-30T20:14:17Z</time>
      </trkpt>
      <trkpt lat="45.7786" lon="4.74542">
        <ele>255</ele>
        <time>2021-06-30T20:15:43Z</time>
      </trkpt>
      <trkpt lat="45.77852" lon="4.74526">
        <ele>254</ele>
        <time>2021-06-30T20:15:54Z</time>
      </trkpt>
      <trkpt lat="45.77832" lon="4.74455">
        <ele>248</ele>
        <time>2021-06-30T20:16:37Z</time>
      </trkpt>
    </trkseg>
  </trk>
</gpx>